sensor_id;sensor_type;location;lat;lon;timestamp;pressure;altitude;pressure_sealevel;temperature;humidity
65666;BME280;52365;47.464;18.976;2023-06-05T00:00:03;100118.13;;;19.92;48.40
65666;BME280;52365;47.464;18.976;2023-06-05T00:00:27;100108.84;;;19.71;48.83
65666;BME280;52365;47.464;18.976;2023-06-05T00:00:49;100113.84;;;19.67;49.00
65666;BME280;52365;47.464;18.976;2023-06-05T00:01:10;100110.38;;;19.66;49.07
65666;BME280;52365;47.464;18.976;2023-06-05T00:01:31;100113.41;;;19.62;49.16
65666;BME280;52365;47.464;18.976;2023-06-05T00:01:54;100113.72;;;19.83;48.76
65666;BME280;52365;47.464;18.976;2023-06-05T00:02:15;100118.50;;;19.77;48.67
65666;BME280;52365;47.464;18.976;2023-06-05T00:02:36;100113.16;;;19.60;49.19
65666;BME280;52365;47.464;18.976;2023-06-05T00:02:58;100116.78;;;19.74;48.94
65666;BME280;52365;47.464;18.976;2023-06-05T00:03:19;100112.66;;;19.92;48.50
65666;BME280;52365;47.464;18.976;2023-06-05T00:03:40;100108.88;;;20.01;48.27
65666;BME280;52365;47.464;18.976;2023-06-05T00:04:04;100112.94;;;19.88;48.26
65666;BME280;52365;47.464;18.976;2023-06-05T00:04:25;100111.94;;;19.92;48.25
65666;BME280;52365;47.464;18.976;2023-06-05T00:04:46;100118.13;;;19.92;48.30
65666;BME280;52365;47.464;18.976;2023-06-05T00:05:07;100114.72;;;19.86;48.42
65666;BME280;52365;47.464;18.976;2023-06-05T00:05:31;100120.72;;;19.84;48.46
65666;BME280;52365;47.464;18.976;2023-06-05T00:05:52;100115.91;;;19.91;48.35
65666;BME280;52365;47.464;18.976;2023-06-05T00:06:13;100116.94;;;19.87;48.32
65666;BME280;52365;47.464;18.976;2023-06-05T00:06:35;100116.19;;;19.87;48.48
65666;BME280;52365;47.464;18.976;2023-06-05T00:06:58;100117.50;;;19.80;48.69
65666;BME280;52365;47.464;18.976;2023-06-05T00:07:19;100114.28;;;19.76;48.80
65666;BME280;52365;47.464;18.976;2023-06-05T00:07:41;100119.19;;;19.83;48.58
65666;BME280;52365;47.464;18.976;2023-06-05T00:08:02;100110.09;;;19.70;48.80
65666;BME280;52365;47.464;18.976;2023-06-05T00:08:23;100121.47;;;19.79;48.74
65666;BME280;52365;47.464;18.976;2023-06-05T00:08:44;100107.09;;;19.73;48.93
65666;BME280;52365;47.464;18.976;2023-06-05T00:09:05;100114.53;;;19.78;48.74
65666;BME280;52365;47.464;18.976;2023-06-05T00:09:26;100121.47;;;19.79;48.82
65666;BME280;52365;47.464;18.976;2023-06-05T00:09:47;100121.53;;;20.04;48.24
65666;BME280;52365;47.464;18.976;2023-06-05T00:10:08;100111.47;;;19.87;48.48
65666;BME280;52365;47.464;18.976;2023-06-05T00:10:29;100118.56;;;19.72;48.82
65666;BME280;52365;47.464;18.976;2023-06-05T00:10:50;100109.88;;;19.68;48.97
65666;BME280;52365;47.464;18.976;2023-06-05T00:11:11;100113.09;;;19.66;48.99
65666;BME280;52365;47.464;18.976;2023-06-05T00:11:32;100114.53;;;19.78;48.68
65666;BME280;52365;47.464;18.976;2023-06-05T00:11:53;100116.25;;;19.81;48.48
65666;BME280;52365;47.464;18.976;2023-06-05T00:12:14;100106.13;;;20.01;48.17
65666;BME280;52365;47.464;18.976;2023-06-05T00:12:36;100113.53;;;20.11;47.82
65666;BME280;52365;47.464;18.976;2023-06-05T00:12:57;100108.78;;;19.82;48.36
65666;BME280;52365;47.464;18.976;2023-06-05T00:13:18;100106.69;;;19.64;48.90
65666;BME280;52365;47.464;18.976;2023-06-05T00:13:39;100113.84;;;19.67;48.96
65666;BME280;52365;47.464;18.976;2023-06-05T00:14:00;100115.63;;;19.64;48.88
65666;BME280;52365;47.464;18.976;2023-06-05T00:14:21;100105.03;;;19.85;48.41
65666;BME280;52365;47.464;18.976;2023-06-05T00:14:43;100103.91;;;19.99;47.80
65666;BME280;52365;47.464;18.976;2023-06-05T00:15:05;100110.22;;;19.88;48.05
65666;BME280;52365;47.464;18.976;2023-06-05T00:15:26;100113.97;;;19.85;48.08
65666;BME280;52365;47.464;18.976;2023-06-05T00:15:47;100104.59;;;19.75;48.20
65666;BME280;52365;47.464;18.976;2023-06-05T00:16:08;100106.09;;;19.76;48.33
65666;BME280;52365;47.464;18.976;2023-06-05T00:16:29;100111.00;;;19.83;48.15
65666;BME280;52365;47.464;18.976;2023-06-05T00:16:50;100110.25;;;19.83;48.04
65666;BME280;52365;47.464;18.976;2023-06-05T00:17:12;100108.50;;;19.85;48.15
65666;BME280;52365;47.464;18.976;2023-06-05T00:17:33;100105.34;;;19.76;48.24
65666;BME280;52365;47.464;18.976;2023-06-05T00:17:54;100105.19;;;19.93;48.07
65666;BME280;52365;47.464;18.976;2023-06-05T00:18:15;100106.59;;;19.75;48.19
65666;BME280;52365;47.464;18.976;2023-06-05T00:18:38;100110.31;;;19.77;48.24
65666;BME280;52365;47.464;18.976;2023-06-05T00:18:59;100112.78;;;19.81;48.12
65666;BME280;52365;47.464;18.976;2023-06-05T00:19:21;100106.25;;;19.84;48.05
65666;BME280;52365;47.464;18.976;2023-06-05T00:19:42;100105.84;;;19.74;48.03
65666;BME280;52365;47.464;18.976;2023-06-05T00:20:04;100101.25;;;19.88;47.75
65666;BME280;52365;47.464;18.976;2023-06-05T00:20:26;100105.37;;;19.70;47.98
65666;BME280;52365;47.464;18.976;2023-06-05T00:20:47;100098.81;;;19.84;47.76
65666;BME280;52365;47.464;18.976;2023-06-05T00:21:08;100105.34;;;19.76;47.78
65666;BME280;52365;47.464;18.976;2023-06-05T00:21:29;100105.78;;;19.85;47.68
65666;BME280;52365;47.464;18.976;2023-06-05T00:21:50;100108.97;;;19.90;47.66
65666;BME280;52365;47.464;18.976;2023-06-05T00:22:13;100103.78;;;19.86;47.59
65666;BME280;52365;47.464;18.976;2023-06-05T00:22:35;100101.31;;;19.82;47.76
65666;BME280;52365;47.464;18.976;2023-06-05T00:22:56;100097.44;;;20.02;47.37
65666;BME280;52365;47.464;18.976;2023-06-05T00:23:16;100103.56;;;19.78;47.40
65666;BME280;52365;47.464;18.976;2023-06-05T00:23:38;100103.09;;;19.74;47.66
65666;BME280;52365;47.464;18.976;2023-06-05T00:23:59;100104.97;;;19.91;47.41
65666;BME280;52365;47.464;18.976;2023-06-05T00:24:20;100104.47;;;19.92;47.25
65666;BME280;52365;47.464;18.976;2023-06-05T00:24:41;100109.66;;;19.96;47.15
65666;BME280;52365;47.464;18.976;2023-06-05T00:25:02;100107.19;;;20.22;46.74
65666;BME280;52365;47.464;18.976;2023-06-05T00:25:23;100108.22;;;20.19;46.63
65666;BME280;52365;47.464;18.976;2023-06-05T00:25:45;100109.13;;;19.97;47.03
65666;BME280;52365;47.464;18.976;2023-06-05T00:26:06;100106.25;;;19.90;47.24
65666;BME280;52365;47.464;18.976;2023-06-05T00:26:27;100103.09;;;19.80;47.61
65666;BME280;52365;47.464;18.976;2023-06-05T00:26:48;100106.47;;;19.92;47.55
65666;BME280;52365;47.464;18.976;2023-06-05T00:27:09;100103.31;;;20.12;47.11
65666;BME280;52365;47.464;18.976;2023-06-05T00:27:30;100104.38;;;20.03;47.18
65666;BME280;52365;47.464;18.976;2023-06-05T00:27:51;100103.41;;;20.01;47.21
65666;BME280;52365;47.464;18.976;2023-06-05T00:28:12;100105.81;;;20.10;47.08
65666;BME280;52365;47.464;18.976;2023-06-05T00:28:33;100109.72;;;20.20;46.72
65666;BME280;52365;47.464;18.976;2023-06-05T00:28:54;100100.34;;;20.10;46.74
65666;BME280;52365;47.464;18.976;2023-06-05T00:29:15;100099.59;;;20.09;46.94
65666;BME280;52365;47.464;18.976;2023-06-05T00:29:36;100107.44;;;20.24;46.82
65666;BME280;52365;47.464;18.976;2023-06-05T00:29:57;100095.97;;;19.96;46.72
65666;BME280;52365;47.464;18.976;2023-06-05T00:30:18;100104.31;;;20.09;46.66
65666;BME280;52365;47.464;18.976;2023-06-05T00:30:39;100104.44;;;19.98;46.71
65666;BME280;52365;47.464;18.976;2023-06-05T00:31:01;100106.44;;;20.22;46.13
65666;BME280;52365;47.464;18.976;2023-06-05T00:31:22;100101.87;;;20.05;46.46
65666;BME280;52365;47.464;18.976;2023-06-05T00:31:43;100100.91;;;20.03;46.49
65666;BME280;52365;47.464;18.976;2023-06-05T00:32:06;100104.56;;;20.11;46.40
65666;BME280;52365;47.464;18.976;2023-06-05T00:32:27;100108.72;;;20.18;46.24
65666;BME280;52365;47.464;18.976;2023-06-05T00:32:48;100113.50;;;20.42;45.93
65666;BME280;52365;47.464;18.976;2023-06-05T00:33:09;100105.37;;;20.30;45.45
65666;BME280;52365;47.464;18.976;2023-06-05T00:33:30;100107.25;;;20.17;45.64
65666;BME280;52365;47.464;18.976;2023-06-05T00:33:51;100107.47;;;20.19;45.60
65666;BME280;52365;47.464;18.976;2023-06-05T00:34:13;100106.72;;;20.18;45.49
65666;BME280;52365;47.464;18.976;2023-06-05T00:34:34;100105.03;;;20.15;45.68
65666;BME280;52365;47.464;18.976;2023-06-05T00:34:56;100106.84;;;20.31;45.37
65666;BME280;52365;47.464;18.976;2023-06-05T00:35:17;100107.00;;;20.15;45.55
65666;BME280;52365;47.464;18.976;2023-06-05T00:35:38;100107.66;;;20.26;45.37
65666;BME280;52365;47.464;18.976;2023-06-05T00:36:00;100105.44;;;20.25;45.21
65666;BME280;52365;47.464;18.976;2023-06-05T00:36:21;100108.88;;;20.01;45.54
65666;BME280;52365;47.464;18.976;2023-06-05T00:36:43;100098.97;;;19.98;45.67
65666;BME280;52365;47.464;18.976;2023-06-05T00:37:04;100101.19;;;19.99;45.84
65666;BME280;52365;47.464;18.976;2023-06-05T00:37:25;100109.25;;;20.16;45.57
65666;BME280;52365;47.464;18.976;2023-06-05T00:37:47;100111.19;;;20.21;45.54
65666;BME280;52365;47.464;18.976;2023-06-05T00:38:08;100111.19;;;20.21;45.54
65666;BME280;52365;47.464;18.976;2023-06-05T00:38:30;100111.66;;;20.25;45.57
65666;BME280;52365;47.464;18.976;2023-06-05T00:38:51;100110.31;;;20.62;44.91
65666;BME280;52365;47.464;18.976;2023-06-05T00:39:12;100111.84;;;20.82;44.48
65666;BME280;52365;47.464;18.976;2023-06-05T00:39:33;100113.88;;;20.76;44.58
65666;BME280;52365;47.464;18.976;2023-06-05T00:39:54;100110.41;;;20.75;44.49
65666;BME280;52365;47.464;18.976;2023-06-05T00:40:15;100108.56;;;20.83;44.36
65666;BME280;52365;47.464;18.976;2023-06-05T00:40:36;100113.31;;;20.58;44.57
65666;BME280;52365;47.464;18.976;2023-06-05T00:40:57;100112.38;;;20.56;44.84
65666;BME280;52365;47.464;18.976;2023-06-05T00:41:18;100111.09;;;20.57;44.54
65666;BME280;52365;47.464;18.976;2023-06-05T00:41:39;100105.75;;;20.46;44.88
65666;BME280;52365;47.464;18.976;2023-06-05T00:42:02;100109.62;;;20.56;44.60
65666;BME280;52365;47.464;18.976;2023-06-05T00:42:23;100104.31;;;20.39;44.72
65666;BME280;52365;47.464;18.976;2023-06-05T00:42:44;100102.69;;;20.25;45.10
65666;BME280;52365;47.464;18.976;2023-06-05T00:43:05;100102.31;;;20.40;44.94
65666;BME280;52365;47.464;18.976;2023-06-05T00:43:26;100108.63;;;20.29;44.93
65666;BME280;52365;47.464;18.976;2023-06-05T00:43:47;100107.47;;;20.19;45.17
65666;BME280;52365;47.464;18.976;2023-06-05T00:44:08;100099.91;;;20.30;44.86
65666;BME280;52365;47.464;18.976;2023-06-05T00:44:29;100106.62;;;20.29;44.80
65666;BME280;52365;47.464;18.976;2023-06-05T00:44:50;100109.47;;;20.18;45.02
65666;BME280;52365;47.464;18.976;2023-06-05T00:45:11;100104.59;;;20.05;45.26
65666;BME280;52365;47.464;18.976;2023-06-05T00:45:33;100104.84;;;20.07;45.32
65666;BME280;52365;47.464;18.976;2023-06-05T00:45:59;100111.53;;;20.12;45.20
65666;BME280;52365;47.464;18.976;2023-06-05T00:46:23;100105.37;;;20.30;44.83
65666;BME280;52365;47.464;18.976;2023-06-05T00:46:45;100109.44;;;20.24;44.84
65666;BME280;52365;47.464;18.976;2023-06-05T00:47:09;100117.66;;;20.24;44.89
65666;BME280;52365;47.464;18.976;2023-06-05T00:47:32;100108.06;;;20.11;45.22
65666;BME280;52365;47.464;18.976;2023-06-05T00:47:53;100105.91;;;19.99;45.43
65666;BME280;52365;47.464;18.976;2023-06-05T00:48:14;100115.09;;;20.01;45.38
65666;BME280;52365;47.464;18.976;2023-06-05T00:48:35;100105.06;;;20.09;45.12
65666;BME280;52365;47.464;18.976;2023-06-05T00:48:57;100113.78;;;20.08;45.14
65666;BME280;52365;47.464;18.976;2023-06-05T00:49:18;100110.81;;;20.06;45.16
65666;BME280;52365;47.464;18.976;2023-06-05T00:49:40;100110.81;;;20.06;45.09
65666;BME280;52365;47.464;18.976;2023-06-05T00:50:02;100110.44;;;20.21;44.97
65666;BME280;52365;47.464;18.976;2023-06-05T00:50:23;100111.78;;;20.38;44.60
65666;BME280;52365;47.464;18.976;2023-06-05T00:50:44;100119.44;;;20.46;44.55
65666;BME280;52365;47.464;18.976;2023-06-05T00:51:06;100118.13;;;20.52;44.28
65666;BME280;52365;47.464;18.976;2023-06-05T00:51:28;100117.44;;;20.71;44.03
65666;BME280;52365;47.464;18.976;2023-06-05T00:51:49;100115.22;;;20.69;43.86
65666;BME280;52365;47.464;18.976;2023-06-05T00:52:11;100112.19;;;20.48;44.40
65666;BME280;52365;47.464;18.976;2023-06-05T00:52:32;100109.25;;;20.16;44.99
65666;BME280;52365;47.464;18.976;2023-06-05T00:52:54;100106.25;;;20.14;45.11
65666;BME280;52365;47.464;18.976;2023-06-05T00:53:15;100108.66;;;19.99;45.48
65666;BME280;52365;47.464;18.976;2023-06-05T00:53:38;100108.66;;;19.99;45.66
65666;BME280;52365;47.464;18.976;2023-06-05T00:54:00;100110.94;;;20.19;45.28
65666;BME280;52365;47.464;18.976;2023-06-05T00:54:21;100116.75;;;20.10;45.30
65666;BME280;52365;47.464;18.976;2023-06-05T00:54:43;100114.44;;;20.20;45.31
65666;BME280;52365;47.464;18.976;2023-06-05T00:55:04;100104.28;;;20.15;45.26
65666;BME280;52365;47.464;18.976;2023-06-05T00:55:27;100109.72;;;20.20;45.02
65666;BME280;52365;47.464;18.976;2023-06-05T00:55:48;100109.13;;;20.27;44.88
65666;BME280;52365;47.464;18.976;2023-06-05T00:56:10;100113.81;;;20.32;44.77
65666;BME280;52365;47.464;18.976;2023-06-05T00:56:31;100114.41;;;20.50;44.50
65666;BME280;52365;47.464;18.976;2023-06-05T00:56:56;100114.84;;;20.59;44.20
65666;BME280;52365;47.464;18.976;2023-06-05T00:57:17;100116.16;;;20.47;44.43
65666;BME280;52365;47.464;18.976;2023-06-05T00:57:39;100115.06;;;20.31;44.87
65666;BME280;52365;47.464;18.976;2023-06-05T00:58:00;100114.03;;;20.34;44.88
65666;BME280;52365;47.464;18.976;2023-06-05T00:58:22;100103.44;;;19.95;45.46
65666;BME280;52365;47.464;18.976;2023-06-05T00:58:43;100112.44;;;19.90;45.76
65666;BME280;52365;47.464;18.976;2023-06-05T00:59:05;100111.72;;;19.90;45.96
65666;BME280;52365;47.464;18.976;2023-06-05T00:59:26;100112.59;;;20.03;45.66
65666;BME280;52365;47.464;18.976;2023-06-05T00:59:47;100105.91;;;19.99;45.90
65666;BME280;52365;47.464;18.976;2023-06-05T01:00:09;100116.19;;;20.17;45.47
65666;BME280;52365;47.464;18.976;2023-06-05T01:00:33;100116.94;;;20.18;45.39
65666;BME280;52365;47.464;18.976;2023-06-05T01:00:55;100112.06;;;20.05;45.49
65666;BME280;52365;47.464;18.976;2023-06-05T01:01:17;100112.19;;;20.18;45.37
65666;BME280;52365;47.464;18.976;2023-06-05T01:01:37;100107.12;;;20.28;45.10
65666;BME280;52365;47.464;18.976;2023-06-05T01:01:59;100113.12;;;20.26;45.00
65666;BME280;52365;47.464;18.976;2023-06-05T01:02:20;100104.31;;;20.09;45.24
65666;BME280;52365;47.464;18.976;2023-06-05T01:02:41;100106.00;;;20.18;45.30
65666;BME280;52365;47.464;18.976;2023-06-05T01:03:03;100114.38;;;20.25;44.84
65666;BME280;52365;47.464;18.976;2023-06-05T01:03:25;100108.00;;;20.17;44.95
65666;BME280;52365;47.464;18.976;2023-06-05T01:03:50;100113.75;;;20.13;45.03
65666;BME280;52365;47.464;18.976;2023-06-05T01:04:11;100107.34;;;20.05;45.05
65666;BME280;52365;47.464;18.976;2023-06-05T01:04:32;100114.13;;;20.29;44.49
65666;BME280;52365;47.464;18.976;2023-06-05T01:04:54;100108.28;;;20.38;44.21
65666;BME280;52365;47.464;18.976;2023-06-05T01:05:17;100115.78;;;20.37;44.31
65666;BME280;52365;47.464;18.976;2023-06-05T01:05:38;100110.00;;;20.17;44.82
65666;BME280;52365;47.464;18.976;2023-06-05T01:06:00;100107.53;;;20.13;44.99
65666;BME280;52365;47.464;18.976;2023-06-05T01:06:25;100105.06;;;20.09;45.16
65666;BME280;52365;47.464;18.976;2023-06-05T01:06:47;100109.25;;;20.16;45.10
65666;BME280;52365;47.464;18.976;2023-06-05T01:07:09;100104.78;;;20.13;44.94
65666;BME280;52365;47.464;18.976;2023-06-05T01:07:35;100108.72;;;20.18;45.15
65666;BME280;52365;47.464;18.976;2023-06-05T01:07:58;100108.28;;;20.38;44.53
65666;BME280;52365;47.464;18.976;2023-06-05T01:08:23;100112.44;;;20.45;44.40
65666;BME280;52365;47.464;18.976;2023-06-05T01:08:46;100110.00;;;20.17;44.81
65666;BME280;52365;47.464;18.976;2023-06-05T01:09:08;100107.19;;;20.22;44.83
65666;BME280;52365;47.464;18.976;2023-06-05T01:09:31;100117.88;;;20.26;44.80
65666;BME280;52365;47.464;18.976;2023-06-05T01:09:52;100105.59;;;20.32;44.72
65666;BME280;52365;47.464;18.976;2023-06-05T01:10:13;100111.06;;;20.32;44.73
65666;BME280;52365;47.464;18.976;2023-06-05T01:10:34;100111.47;;;20.48;44.44
65666;BME280;52365;47.464;18.976;2023-06-05T01:10:59;100109.91;;;20.52;44.45
65666;BME280;52365;47.464;18.976;2023-06-05T01:11:55;100108.37;;;21.00;43.40
65666;BME280;52365;47.464;18.976;2023-06-05T01:13:13;100106.44;;;20.52;44.50
65666;BME280;52365;47.464;18.976;2023-06-05T01:13:38;100112.84;;;20.30;44.80
65666;BME280;52365;47.464;18.976;2023-06-05T01:14:14;100109.03;;;20.38;44.75
65666;BME280;52365;47.464;18.976;2023-06-05T01:14:39;100111.37;;;20.53;44.55
65666;BME280;52365;47.464;18.976;2023-06-05T01:15:07;100108.94;;;20.50;44.62
65666;BME280;52365;47.464;18.976;2023-06-05T01:15:29;100104.13;;;20.31;44.92
65666;BME280;52365;47.464;18.976;2023-06-05T01:15:51;100106.50;;;20.16;45.28
65666;BME280;52365;47.464;18.976;2023-06-05T01:16:13;100096.81;;;20.15;45.22
65666;BME280;52365;47.464;18.976;2023-06-05T01:16:37;100102.66;;;20.00;45.59
65666;BME280;52365;47.464;18.976;2023-06-05T01:17:00;100101.47;;;19.96;45.80
65666;BME280;52365;47.464;18.976;2023-06-05T01:17:23;100100.56;;;19.82;46.08
65666;BME280;52365;47.464;18.976;2023-06-05T01:17:45;100103.25;;;19.87;45.98
65666;BME280;52365;47.464;18.976;2023-06-05T01:18:09;100094.50;;;19.95;46.00
65666;BME280;52365;47.464;18.976;2023-06-05T01:18:30;100102.00;;;19.88;46.04
65666;BME280;52365;47.464;18.976;2023-06-05T01:18:52;100109.59;;;20.01;45.80
65666;BME280;52365;47.464;18.976;2023-06-05T01:19:14;100097.66;;;20.04;45.89
65666;BME280;52365;47.464;18.976;2023-06-05T01:19:35;100100.31;;;20.16;45.55
65666;BME280;52365;47.464;18.976;2023-06-05T01:19:57;100105.06;;;20.09;45.43
65666;BME280;52365;47.464;18.976;2023-06-05T01:20:20;100106.06;;;20.12;45.51
65666;BME280;52365;47.464;18.976;2023-06-05T01:20:41;100100.78;;;19.90;45.95
65666;BME280;52365;47.464;18.976;2023-06-05T01:21:02;100101.47;;;19.96;45.95
65666;BME280;52365;47.464;18.976;2023-06-05T01:21:24;100102.44;;;19.98;46.05
65666;BME280;52365;47.464;18.976;2023-06-05T01:21:46;100101.78;;;20.17;45.55
65666;BME280;52365;47.464;18.976;2023-06-05T01:22:07;100104.41;;;20.28;45.07
65666;BME280;52365;47.464;18.976;2023-06-05T01:22:28;100109.94;;;20.47;44.75
65666;BME280;52365;47.464;18.976;2023-06-05T01:22:51;100098.03;;;20.44;44.65
65666;BME280;52365;47.464;18.976;2023-06-05T01:23:12;100099.84;;;20.36;44.83
65666;BME280;52365;47.464;18.976;2023-06-05T01:23:33;100102.81;;;20.38;44.80
65666;BME280;52365;47.464;18.976;2023-06-05T01:23:56;100109.94;;;20.47;44.65
65666;BME280;52365;47.464;18.976;2023-06-05T01:24:18;100095.63;;;20.35;44.70
65666;BME280;52365;47.464;18.976;2023-06-05T01:24:42;100098.88;;;20.33;44.86
65666;BME280;52365;47.464;18.976;2023-06-05T01:25:07;100104.13;;;20.31;44.93
65666;BME280;52365;47.464;18.976;2023-06-05T01:25:30;100101.63;;;20.33;44.91
65666;BME280;52365;47.464;18.976;2023-06-05T01:25:51;100104.81;;;20.37;44.79
65666;BME280;52365;47.464;18.976;2023-06-05T01:26:18;100101.50;;;20.20;45.18
65666;BME280;52365;47.464;18.976;2023-06-05T01:27:34;100098.78;;;20.15;45.19
65666;BME280;52365;47.464;18.976;2023-06-05T01:28:26;100098.84;;;20.09;45.37
65666;BME280;52365;47.464;18.976;2023-06-05T01:28:50;100094.84;;;20.10;45.41
65666;BME280;52365;47.464;18.976;2023-06-05T01:29:14;100098.31;;;20.16;45.19
65666;BME280;52365;47.464;18.976;2023-06-05T01:30:07;100100.66;;;20.01;45.44
65666;BME280;52365;47.464;18.976;2023-06-05T01:30:35;100098.50;;;19.94;45.69
65666;BME280;52365;47.464;18.976;2023-06-05T01:31:03;100095.44;;;20.03;45.38
65666;BME280;52365;47.464;18.976;2023-06-05T01:31:27;100106.62;;;20.29;44.91
65666;BME280;52365;47.464;18.976;2023-06-05T01:31:51;100104.34;;;20.33;44.80
65666;BME280;52365;47.464;18.976;2023-06-05T01:32:21;100102.19;;;20.26;44.91
65666;BME280;52365;47.464;18.976;2023-06-05T01:33:05;100096.19;;;20.28;44.88
65666;BME280;52365;47.464;18.976;2023-06-05T01:33:32;100111.63;;;20.55;44.38
65666;BME280;52365;47.464;18.976;2023-06-05T01:34:08;100108.09;;;20.60;44.39
65666;BME280;52365;47.464;18.976;2023-06-05T01:34:35;100097.84;;;20.36;44.75
65666;BME280;52365;47.464;18.976;2023-06-05T01:34:58;100104.13;;;20.31;44.87
65666;BME280;52365;47.464;18.976;2023-06-05T01:35:22;100095.31;;;20.14;45.26
65666;BME280;52365;47.464;18.976;2023-06-05T01:35:49;100094.81;;;20.16;45.29
65666;BME280;52365;47.464;18.976;2023-06-05T01:36:12;100104.00;;;20.18;45.47
65666;BME280;52365;47.464;18.976;2023-06-05T01:36:34;100097.72;;;20.23;45.20
65666;BME280;52365;47.464;18.976;2023-06-05T01:36:58;100104.41;;;20.28;44.98
65666;BME280;52365;47.464;18.976;2023-06-05T01:37:19;100112.00;;;20.41;44.84
65666;BME280;52365;47.464;18.976;2023-06-05T01:37:47;100109.03;;;20.38;44.83
65666;BME280;52365;47.464;18.976;2023-06-05T01:38:09;100104.19;;;20.26;45.22
65666;BME280;52365;47.464;18.976;2023-06-05T01:38:35;100105.31;;;20.11;45.39
65666;BME280;52365;47.464;18.976;2023-06-05T01:38:58;100103.03;;;19.85;46.02
65666;BME280;52365;47.464;18.976;2023-06-05T01:39:21;100104.97;;;19.91;45.73
65666;BME280;52365;47.464;18.976;2023-06-05T01:39:42;100093.25;;;19.96;45.67
65666;BME280;52365;47.464;18.976;2023-06-05T01:40:11;100100.44;;;19.99;45.62
65666;BME280;52365;47.464;18.976;2023-06-05T01:40:34;100102.31;;;20.15;45.34
65666;BME280;52365;47.464;18.976;2023-06-05T01:40:55;100100.12;;;20.32;45.04
65666;BME280;52365;47.464;18.976;2023-06-05T01:41:17;100105.31;;;20.36;44.78
65666;BME280;52365;47.464;18.976;2023-06-05T01:41:39;100105.94;;;20.23;45.01
65666;BME280;52365;47.464;18.976;2023-06-05T01:42:02;100100.69;;;20.25;45.03
65666;BME280;52365;47.464;18.976;2023-06-05T01:42:24;100105.59;;;20.32;44.82
65666;BME280;52365;47.464;18.976;2023-06-05T01:42:46;100096.84;;;20.09;45.25
65666;BME280;52365;47.464;18.976;2023-06-05T01:43:08;100106.44;;;20.22;45.11
65666;BME280;52365;47.464;18.976;2023-06-05T01:43:31;100101.78;;;20.17;45.20
65666;BME280;52365;47.464;18.976;2023-06-05T01:43:53;100104.91;;;20.02;45.32
65666;BME280;52365;47.464;18.976;2023-06-05T01:44:15;100100.84;;;20.08;45.33
65666;BME280;52365;47.464;18.976;2023-06-05T01:44:39;100101.06;;;20.10;45.31
65666;BME280;52365;47.464;18.976;2023-06-05T01:45:02;100108.19;;;20.25;45.06
65666;BME280;52365;47.464;18.976;2023-06-05T01:45:23;100107.09;;;20.33;44.80
65666;BME280;52365;47.464;18.976;2023-06-05T01:45:44;100101.91;;;20.30;44.90
65666;BME280;52365;47.464;18.976;2023-06-05T01:46:06;100101.37;;;20.31;44.93
65666;BME280;52365;47.464;18.976;2023-06-05T01:46:28;100108.13;;;20.30;44.95
65666;BME280;52365;47.464;18.976;2023-06-05T01:46:49;100104.19;;;20.26;44.99
65666;BME280;52365;47.464;18.976;2023-06-05T01:47:11;100104.50;;;20.41;44.63
65666;BME280;52365;47.464;18.976;2023-06-05T01:47:35;100099.72;;;20.23;45.01
65666;BME280;52365;47.464;18.976;2023-06-05T01:47:57;100107.31;;;20.11;45.30
65666;BME280;52365;47.464;18.976;2023-06-05T01:48:18;100104.78;;;20.13;45.15
65666;BME280;52365;47.464;18.976;2023-06-05T01:48:40;100099.72;;;20.23;45.13
65666;BME280;52365;47.464;18.976;2023-06-05T01:49:01;100103.59;;;20.08;45.29
65666;BME280;52365;47.464;18.976;2023-06-05T01:49:23;100102.31;;;20.15;45.27
65666;BME280;52365;47.464;18.976;2023-06-05T01:49:44;100104.09;;;20.07;45.18
65666;BME280;52365;47.464;18.976;2023-06-05T01:50:06;100109.34;;;20.05;45.20
65666;BME280;52365;47.464;18.976;2023-06-05T01:50:33;100102.16;;;20.02;45.26
65666;BME280;52365;47.464;18.976;2023-06-05T01:51:00;100107.78;;;19.85;45.64
65666;BME280;52365;47.464;18.976;2023-06-05T01:51:21;100099.03;;;19.86;45.74
65666;BME280;52365;47.464;18.976;2023-06-05T01:51:42;100103.88;;;20.05;45.39
65666;BME280;52365;47.464;18.976;2023-06-05T01:52:03;100099.31;;;20.13;45.19
65666;BME280;52365;47.464;18.976;2023-06-05T01:52:25;100107.00;;;20.15;45.17
65666;BME280;52365;47.464;18.976;2023-06-05T01:52:46;100099.72;;;20.23;44.96
65666;BME280;52365;47.464;18.976;2023-06-05T01:53:07;100108.06;;;20.36;44.79
65666;BME280;52365;47.464;18.976;2023-06-05T01:53:30;100108.94;;;20.50;44.37
65666;BME280;52365;47.464;18.976;2023-06-05T01:53:51;100099.28;;;20.43;44.41
65666;BME280;52365;47.464;18.976;2023-06-05T01:54:13;100104.13;;;20.31;44.67
65666;BME280;52365;47.464;18.976;2023-06-05T01:54:36;100099.09;;;20.35;44.63
65666;BME280;52365;47.464;18.976;2023-06-05T01:54:57;100106.38;;;20.27;44.83
65666;BME280;52365;47.464;18.976;2023-06-05T01:55:23;100107.56;;;20.37;44.61
65666;BME280;52365;47.464;18.976;2023-06-05T01:55:44;100096.59;;;20.37;44.48
65666;BME280;52365;47.464;18.976;2023-06-05T01:56:07;100101.31;;;20.12;45.10
65666;BME280;52365;47.464;18.976;2023-06-05T01:56:29;100097.72;;;19.99;45.54
65666;BME280;52365;47.464;18.976;2023-06-05T01:56:50;100094.03;;;19.91;45.96
65666;BME280;52365;47.464;18.976;2023-06-05T01:57:13;100097.25;;;19.95;45.85
65666;BME280;52365;47.464;18.976;2023-06-05T01:57:35;100098.25;;;19.92;45.91
65666;BME280;52365;47.464;18.976;2023-06-05T01:57:57;100101.25;;;19.88;46.01